TimeCST,TemperatureF,Dew PointF,Humidity,Sea Level PressureIn,VisibilityMPH,Wind Direction,Wind SpeedMPH,Gust SpeedMPH,PrecipitationIn,Events,Conditions,WindDirDegrees,DateUTC
12:52 AM,32.0,26.1,79,30.35,-9999.0,Calm,Calm,-,N/A,,Unknown,0,2012-12-05 06:52:00
1:52 AM,32.0,25.0,75,30.37,-9999.0,North,3.5,-,N/A,,Unknown,350,2012-12-05 07:52:00
2:52 AM,30.9,25.0,79,30.38,-9999.0,North,3.5,-,N/A,,Unknown,10,2012-12-05 08:52:00
3:52 AM,33.1,25.0,72,30.37,-9999.0,Calm,Calm,-,N/A,,Unknown,0,2012-12-05 09:52:00
4:52 AM,36.0,26.1,67,30.37,-9999.0,Calm,Calm,-,N/A,,Unknown,0,2012-12-05 10:52:00
5:52 AM,30.0,24.1,79,30.39,-9999.0,Calm,Calm,-,N/A,,Unknown,0,2012-12-05 11:52:00
6:52 AM,28.9,24.1,82,30.40,-9999.0,Calm,Calm,-,N/A,,Unknown,0,2012-12-05 12:52:00
8:52 AM,37.9,28.0,68,30.39,-9999.0,ESE,5.8,-,N/A,,Unknown,120,2012-12-05 14:52:00
9:52 AM,41.0,30.0,65,30.38,-9999.0,ESE,5.8,-,N/A,,Unknown,120,2012-12-05 15:52:00
10:52 AM,46.0,30.9,56,30.37,-9999.0,ESE,9.2,-,N/A,,Unknown,120,2012-12-05 16:52:00
11:52 AM,48.9,33.1,54,30.33,-9999.0,ESE,5.8,-,N/A,,Unknown,120,2012-12-05 17:52:00
12:52 PM,52.0,33.1,49,30.29,-9999.0,ESE,8.1,-,N/A,,Unknown,120,2012-12-05 18:52:00
1:52 PM,54.0,33.1,45,30.25,-9999.0,SSE,8.1,-,N/A,,Unknown,150,2012-12-05 19:52:00
2:52 PM,55.9,34.0,44,30.22,-9999.0,SE,9.2,-,N/A,,Unknown,140,2012-12-05 20:52:00
3:52 PM,55.9,32.0,40,30.20,-9999.0,SSE,9.2,-,N/A,,Unknown,150,2012-12-05 21:52:00
4:52 PM,53.1,30.9,43,30.18,-9999.0,SSE,5.8,-,N/A,,Unknown,150,2012-12-05 22:52:00
5:52 PM,50.0,30.9,48,30.19,-9999.0,SE,4.6,-,N/A,,Unknown,140,2012-12-05 23:52:00
6:52 PM,48.9,32.0,52,30.17,-9999.0,SE,9.2,-,N/A,,Unknown,130,2012-12-06 00:52:00
7:52 PM,46.9,32.0,56,30.16,-9999.0,SE,5.8,-,N/A,,Unknown,130,2012-12-06 01:52:00
8:52 PM,46.0,33.1,61,30.13,-9999.0,SE,6.9,-,N/A,,Unknown,130,2012-12-06 02:52:00
9:52 PM,45.0,32.0,60,30.11,-9999.0,SSE,6.9,-,N/A,,Unknown,150,2012-12-06 03:52:00
10:52 PM,46.0,34.0,63,30.08,-9999.0,SSE,10.4,-,N/A,,Unknown,150,2012-12-06 04:52:00
11:52 PM,46.0,34.0,63,30.07,-9999.0,SSE,8.1,-,N/A,,Unknown,150,2012-12-06 05:52:00